Lode — SFC9613 — position and weather

sailwx.info

Track history (hours):
 
Tides and Currents Weather Stations Pressure Air Temp Water Temp Dewpoint Dewpoint Depression Visibility Wind Speed Wind Dir Waves Ship Positions

Lode

Last reported at 2015-Mar-27 15:31 UTC. Time now 2015-Mar-28 09:24 UTC.
Position N 57°43' E 011°58'.

Length 11 m.

Type: Dredging. MMSI: 265680440.

Date/timePositionNaut miles runAvg speedWind from/ knotsBaromVisibWave heightAir tempDewpointWater temp
2015-Mar-27 15:31N 57°43' E 011°58'0 0.0
2015-Mar-27 14:31N 57°43' E 011°58'1 0.9
2015-Mar-27 13:33N 57°42' E 011°57'0 0.2
2015-Mar-27 12:28N 57°42' E 011°57'3 3.7
2015-Mar-27 11:33N 57°45' E 012°00'1 1.4
2015-Mar-27 10:33N 57°44' E 011°60'1 0.7
2015-Mar-27 09:33N 57°45' E 012°00'2 1.8
2015-Mar-27 08:33N 57°43' E 011°59'1 1.2
2015-Mar-27 07:33N 57°42' E 011°57'0 0.0
2015-Mar-27 06:30N 57°42' E 011°57'0 0.0
2015-Mar-27 05:33N 57°42' E 011°57'0 0.0
2015-Mar-27 04:33N 57°42' E 011°57'0 0.0
2015-Mar-27 03:33N 57°42' E 011°57'0 0.0
2015-Mar-27 02:33N 57°42' E 011°57'0 0.0
2015-Mar-27 01:33N 57°42' E 011°57'0 0.0
2015-Mar-27 00:33N 57°42' E 011°57'0 0.0
2015-Mar-26 23:33N 57°42' E 011°57'0 0.0
2015-Mar-26 22:33N 57°42' E 011°57'0 0.0
2015-Mar-26 21:33N 57°42' E 011°57'0 0.0
2015-Mar-26 20:33N 57°42' E 011°57'0 0.0
2015-Mar-26 19:33N 57°42' E 011°57'0 0.0
2015-Mar-26 18:33N 57°42' E 011°57'0 0.0
2015-Mar-26 17:33N 57°42' E 011°57'0 0.0
2015-Mar-26 16:33N 57°42' E 011°57'0 0.0
2015-Mar-26 15:33N 57°42' E 011°57'1312.8
2015-Mar-26 14:33N 57°37' E 011°35'0 0.5
2015-Mar-26 13:33N 57°37' E 011°34'1 0.8
2015-Mar-26 12:29N 57°36' E 011°34'1 0.7
2015-Mar-26 11:33N 57°37' E 011°34'1 0.6
2015-Mar-26 10:32N 57°36' E 011°33'0 0.1
2015-Mar-26 09:33N 57°36' E 011°34'1211.7
2015-Mar-26 08:33N 57°41' E 011°53'2 2.1
2015-Mar-26 07:32N 57°42' E 011°57'0 0.0
2015-Mar-26 06:32N 57°42' E 011°57'0 0.0
2015-Mar-26 05:32N 57°42' E 011°57'0 0.0
2015-Mar-26 04:32N 57°42' E 011°57'0 0.0
2015-Mar-26 03:32N 57°42' E 011°57'0 0.0
2015-Mar-26 02:32N 57°42' E 011°57'0 0.0
2015-Mar-26 01:32N 57°42' E 011°57'0 0.0
2015-Mar-26 00:32N 57°42' E 011°57'0 0.0
2015-Mar-25 23:32N 57°42' E 011°57'0 0.0
2015-Mar-25 22:32N 57°42' E 011°57'0 0.0
2015-Mar-25 21:32N 57°42' E 011°57'0 0.0
2015-Mar-25 20:32N 57°42' E 011°57'0 0.0
2015-Mar-25 19:32N 57°42' E 011°57'0 0.0
2015-Mar-25 18:32N 57°42' E 011°57'0 0.0
2015-Mar-25 17:32N 57°42' E 011°57'1 0.8
2015-Mar-25 16:34N 57°42' E 011°55'0 0.1
2015-Mar-25 15:33N 57°42' E 011°55'2 1.6
2015-Mar-25 14:33N 57°43' E 011°58'0 0.4
2015-Mar-25 13:33N 57°43' E 011°57'1 1.0
2015-Mar-25 12:33N 57°42' E 011°56'0 0.1
2015-Mar-25 11:33N 57°42' E 011°56'1 0.6
2015-Mar-25 10:31N 57°42' E 011°57'1 0.6
2015-Mar-25 09:33N 57°42' E 011°56'4 3.8
2015-Mar-25 08:33N 57°45' E 012°00'2 2.2
2015-Mar-25 07:33N 57°43' E 011°59'1 1.3
2015-Mar-25 06:32N 57°42' E 011°57'0 0.0
2015-Mar-25 05:32N 57°42' E 011°57'0 0.0
2015-Mar-25 04:32N 57°42' E 011°57'0 0.0
2015-Mar-25 03:30N 57°42' E 011°57'0 0.0
2015-Mar-25 02:33N 57°42' E 011°57'0 0.0
2015-Mar-25 01:33N 57°42' E 011°57'0 0.0
2015-Mar-25 00:33N 57°42' E 011°57'0 0.0
2015-Mar-24 23:33N 57°42' E 011°57'0 0.0
2015-Mar-24 22:33N 57°42' E 011°57'0 0.0
2015-Mar-24 21:30N 57°42' E 011°57'0 0.0
2015-Mar-24 20:33N 57°42' E 011°57'0 0.0
2015-Mar-24 19:33N 57°42' E 011°57'0 0.0
2015-Mar-24 18:33N 57°42' E 011°57'0 0.0
2015-Mar-24 17:33N 57°42' E 011°57'0 0.0
2015-Mar-24 16:30N 57°42' E 011°57'0 0.0
2015-Mar-24 15:33N 57°42' E 011°57'1 0.7
2015-Mar-24 14:33N 57°42' E 011°55'1 0.5
2015-Mar-24 13:33N 57°42' E 011°55'1 0.8
2015-Mar-24 12:33N 57°41' E 011°54'0 0.3
2015-Mar-24 11:31N 57°41' E 011°54'6 6.4
2015-Mar-24 10:33N 57°41' E 011°43'3 3.0
2015-Mar-24 09:33N 57°43' E 011°40'5 4.7
2015-Mar-24 08:33N 57°39' E 011°40'10 9.4
2015-Mar-24 07:32N 57°42' E 011°57'0 0.0
2015-Mar-24 06:32N 57°42' E 011°57'0 0.0
2015-Mar-24 05:32N 57°42' E 011°57'0 0.0
2015-Mar-24 04:32N 57°42' E 011°57'0 0.0
2015-Mar-24 03:32N 57°42' E 011°57'0 0.0
2015-Mar-24 02:32N 57°42' E 011°57'0 0.0
2015-Mar-24 01:29N 57°42' E 011°57'0 0.0
2015-Mar-24 00:32N 57°42' E 011°57'0 0.0
2015-Mar-23 23:32N 57°42' E 011°57'0 0.0
2015-Mar-23 22:32N 57°42' E 011°57'0 0.0
2015-Mar-23 21:32N 57°42' E 011°57'0 0.0
2015-Mar-23 20:32N 57°42' E 011°57'0 0.0
2015-Mar-23 19:32N 57°42' E 011°57'0 0.0
2015-Mar-23 18:32N 57°42' E 011°57'0 0.0
2015-Mar-23 17:32N 57°42' E 011°57'0 0.0
2015-Mar-23 16:32N 57°42' E 011°57'1 0.8
2015-Mar-23 15:33N 57°43' E 011°58'1 1.2
2015-Mar-23 14:33N 57°44' E 011°60'0 0.1
2015-Mar-23 13:33N 57°44' E 011°60'2 1.9
2015-Mar-23 12:32N 57°42' E 011°57'2 2.5
2015-Mar-23 11:33N 57°41' E 011°53'1 1.0
2015-Mar-23 10:33N 57°41' E 011°51'0 0.2
2015-Mar-23 09:33N 57°41' E 011°50'2 2.1
2015-Mar-23 08:33N 57°42' E 011°54'2 1.5
2015-Mar-23 07:31N 57°42' E 011°57'0 0.0
2015-Mar-23 06:31N 57°42' E 011°57'0 0.0
2015-Mar-23 05:28N 57°42' E 011°57'0 0.0
2015-Mar-23 04:31N 57°42' E 011°57'0 0.0
2015-Mar-23 03:31N 57°42' E 011°57'0 0.0
2015-Mar-23 02:31N 57°42' E 011°57'0 0.0
2015-Mar-23 01:31N 57°42' E 011°57'0 0.0
2015-Mar-23 00:28N 57°42' E 011°57'0 0.0
2015-Mar-22 23:31N 57°42' E 011°57'0 0.0
2015-Mar-22 22:31N 57°42' E 011°57'0 0.0
2015-Mar-22 21:31N 57°42' E 011°57'1 0.8
2015-Mar-22 20:31N 57°43' E 011°57'21229.1
2015-Mar-22 13:14N 59°18' E 018°00'  
2015-Mar-19 15:28N 59°20' E 018°11'4 4.0
2015-Mar-19 14:33N 59°18' E 018°05'4 3.6
2015-Mar-19 13:32N 59°19' E 017°58'0 0.0
2015-Mar-19 06:04N 59°19' E 017°58'0 0.3
2015-Mar-19 04:33N 59°18' E 017°59'0 0.0
2015-Mar-19 03:30N 59°18' E 017°59'0 0.0
2015-Mar-19 02:27N 59°18' E 017°59'0 0.0
2015-Mar-19 01:30N 59°18' E 017°59'0 0.0
2015-Mar-19 00:33N 59°18' E 017°59'0 0.0
2015-Mar-18 23:27N 59°18' E 017°59'0 0.0
2015-Mar-18 22:33N 59°18' E 017°59'0 0.0
2015-Mar-18 21:33N 59°18' E 017°59'0 0.0
2015-Mar-18 20:33N 59°18' E 017°59'0 0.0
2015-Mar-18 19:33N 59°18' E 017°59'0 0.0
2015-Mar-18 18:33N 59°18' E 017°59'0 0.0
2015-Mar-18 17:33N 59°18' E 017°59'0 0.0
2015-Mar-18 16:33N 59°18' E 017°59'0 0.0
2015-Mar-18 15:33N 59°18' E 017°59'0 0.0
2015-Mar-18 14:33N 59°18' E 017°59'0 0.0
2015-Mar-18 13:33N 59°18' E 017°59'0 0.0
2015-Mar-18 12:30N 59°18' E 017°59'0 0.0
2015-Mar-18 11:30N 59°18' E 017°58'0 0.0
2015-Mar-18 10:30N 59°18' E 017°59'0 0.0
2015-Mar-18 09:33N 59°18' E 017°59'0 0.0
2015-Mar-18 08:33N 59°18' E 017°59'0 0.0
2015-Mar-18 07:33N 59°18' E 017°59'0 0.0
2015-Mar-18 06:24N 59°18' E 017°59'0 0.0
2015-Mar-18 05:33N 59°18' E 017°59'0 0.0
2015-Mar-18 04:24N 59°18' E 017°59'0 0.0
2015-Mar-18 03:30N 59°18' E 017°59'0 0.0
2015-Mar-18 02:30N 59°18' E 017°59'0 0.0
2015-Mar-18 01:33N 59°18' E 017°59'0 0.0
2015-Mar-18 00:33N 59°18' E 017°59'0 0.0
2015-Mar-17 23:30N 59°18' E 017°59'0 0.0
2015-Mar-17 22:33N 59°18' E 017°59'0 0.0
2015-Mar-17 21:33N 59°18' E 017°59'0 0.0
2015-Mar-17 20:33N 59°18' E 017°59'0 0.0
2015-Mar-17 19:33N 59°18' E 017°59'0 0.0
2015-Mar-17 18:33N 59°18' E 017°59'0 0.0
2015-Mar-17 17:30N 59°18' E 017°59'0 0.0
2015-Mar-17 16:33N 59°18' E 017°59'  
Track history (hours):
 
Tides and Currents Weather Stations Pressure Air Temp Water Temp Dewpoint Dewpoint Depression Visibility Wind Speed Wind Dir Waves Ship Positions

Lode

Last reported at 2015-Mar-27 15:31 UTC. Time now 2015-Mar-28 09:24 UTC.
Position N 57°43' E 011°58'.

Length 11 m.

Type: Dredging. MMSI: 265680440.

Date/timePositionNaut miles runAvg speedWind from/ knotsBaromVisibWave heightAir tempDewpointWater temp
2015-Mar-27 15:31N 57°43' E 011°58'0 0.0
2015-Mar-27 14:31N 57°43' E 011°58'1 0.9
2015-Mar-27 13:33N 57°42' E 011°57'0 0.2
2015-Mar-27 12:28N 57°42' E 011°57'3 3.7
2015-Mar-27 11:33N 57°45' E 012°00'1 1.4
2015-Mar-27 10:33N 57°44' E 011°60'1 0.7
2015-Mar-27 09:33N 57°45' E 012°00'2 1.8
2015-Mar-27 08:33N 57°43' E 011°59'1 1.2
2015-Mar-27 07:33N 57°42' E 011°57'0 0.0
2015-Mar-27 06:30N 57°42' E 011°57'0 0.0
2015-Mar-27 05:33N 57°42' E 011°57'0 0.0
2015-Mar-27 04:33N 57°42' E 011°57'0 0.0
2015-Mar-27 03:33N 57°42' E 011°57'0 0.0
2015-Mar-27 02:33N 57°42' E 011°57'0 0.0
2015-Mar-27 01:33N 57°42' E 011°57'0 0.0
2015-Mar-27 00:33N 57°42' E 011°57'0 0.0
2015-Mar-26 23:33N 57°42' E 011°57'0 0.0
2015-Mar-26 22:33N 57°42' E 011°57'0 0.0
2015-Mar-26 21:33N 57°42' E 011°57'0 0.0
2015-Mar-26 20:33N 57°42' E 011°57'0 0.0
2015-Mar-26 19:33N 57°42' E 011°57'0 0.0
2015-Mar-26 18:33N 57°42' E 011°57'0 0.0
2015-Mar-26 17:33N 57°42' E 011°57'0 0.0
2015-Mar-26 16:33N 57°42' E 011°57'0 0.0
2015-Mar-26 15:33N 57°42' E 011°57'1312.8
2015-Mar-26 14:33N 57°37' E 011°35'0 0.5
2015-Mar-26 13:33N 57°37' E 011°34'1 0.8
2015-Mar-26 12:29N 57°36' E 011°34'1 0.7
2015-Mar-26 11:33N 57°37' E 011°34'1 0.6
2015-Mar-26 10:32N 57°36' E 011°33'0 0.1
2015-Mar-26 09:33N 57°36' E 011°34'1211.7
2015-Mar-26 08:33N 57°41' E 011°53'2 2.1
2015-Mar-26 07:32N 57°42' E 011°57'0 0.0
2015-Mar-26 06:32N 57°42' E 011°57'0 0.0
2015-Mar-26 05:32N 57°42' E 011°57'0 0.0
2015-Mar-26 04:32N 57°42' E 011°57'0 0.0
2015-Mar-26 03:32N 57°42' E 011°57'0 0.0
2015-Mar-26 02:32N 57°42' E 011°57'0 0.0
2015-Mar-26 01:32N 57°42' E 011°57'0 0.0
2015-Mar-26 00:32N 57°42' E 011°57'0 0.0
2015-Mar-25 23:32N 57°42' E 011°57'0 0.0
2015-Mar-25 22:32N 57°42' E 011°57'0 0.0
2015-Mar-25 21:32N 57°42' E 011°57'0 0.0
2015-Mar-25 20:32N 57°42' E 011°57'0 0.0
2015-Mar-25 19:32N 57°42' E 011°57'0 0.0
2015-Mar-25 18:32N 57°42' E 011°57'0 0.0
2015-Mar-25 17:32N 57°42' E 011°57'1 0.8
2015-Mar-25 16:34N 57°42' E 011°55'0 0.1
2015-Mar-25 15:33N 57°42' E 011°55'2 1.6
2015-Mar-25 14:33N 57°43' E 011°58'0 0.4
2015-Mar-25 13:33N 57°43' E 011°57'1 1.0
2015-Mar-25 12:33N 57°42' E 011°56'0 0.1
2015-Mar-25 11:33N 57°42' E 011°56'1 0.6
2015-Mar-25 10:31N 57°42' E 011°57'1 0.6
2015-Mar-25 09:33N 57°42' E 011°56'4 3.8
2015-Mar-25 08:33N 57°45' E 012°00'2 2.2
2015-Mar-25 07:33N 57°43' E 011°59'1 1.3
2015-Mar-25 06:32N 57°42' E 011°57'0 0.0
2015-Mar-25 05:32N 57°42' E 011°57'0 0.0
2015-Mar-25 04:32N 57°42' E 011°57'0 0.0
2015-Mar-25 03:30N 57°42' E 011°57'0 0.0
2015-Mar-25 02:33N 57°42' E 011°57'0 0.0
2015-Mar-25 01:33N 57°42' E 011°57'0 0.0
2015-Mar-25 00:33N 57°42' E 011°57'0 0.0
2015-Mar-24 23:33N 57°42' E 011°57'0 0.0
2015-Mar-24 22:33N 57°42' E 011°57'0 0.0
2015-Mar-24 21:30N 57°42' E 011°57'0 0.0
2015-Mar-24 20:33N 57°42' E 011°57'0 0.0
2015-Mar-24 19:33N 57°42' E 011°57'0 0.0
2015-Mar-24 18:33N 57°42' E 011°57'0 0.0
2015-Mar-24 17:33N 57°42' E 011°57'0 0.0
2015-Mar-24 16:30N 57°42' E 011°57'0 0.0
2015-Mar-24 15:33N 57°42' E 011°57'1 0.7
2015-Mar-24 14:33N 57°42' E 011°55'1 0.5
2015-Mar-24 13:33N 57°42' E 011°55'1 0.8
2015-Mar-24 12:33N 57°41' E 011°54'0 0.3
2015-Mar-24 11:31N 57°41' E 011°54'6 6.4
2015-Mar-24 10:33N 57°41' E 011°43'3 3.0
2015-Mar-24 09:33N 57°43' E 011°40'5 4.7
2015-Mar-24 08:33N 57°39' E 011°40'10 9.4
2015-Mar-24 07:32N 57°42' E 011°57'0 0.0
2015-Mar-24 06:32N 57°42' E 011°57'0 0.0
2015-Mar-24 05:32N 57°42' E 011°57'0 0.0
2015-Mar-24 04:32N 57°42' E 011°57'0 0.0
2015-Mar-24 03:32N 57°42' E 011°57'0 0.0
2015-Mar-24 02:32N 57°42' E 011°57'0 0.0
2015-Mar-24 01:29N 57°42' E 011°57'0 0.0
2015-Mar-24 00:32N 57°42' E 011°57'0 0.0
2015-Mar-23 23:32N 57°42' E 011°57'0 0.0
2015-Mar-23 22:32N 57°42' E 011°57'0 0.0
2015-Mar-23 21:32N 57°42' E 011°57'0 0.0
2015-Mar-23 20:32N 57°42' E 011°57'0 0.0
2015-Mar-23 19:32N 57°42' E 011°57'0 0.0
2015-Mar-23 18:32N 57°42' E 011°57'0 0.0
2015-Mar-23 17:32N 57°42' E 011°57'0 0.0
2015-Mar-23 16:32N 57°42' E 011°57'1 0.8
2015-Mar-23 15:33N 57°43' E 011°58'1 1.2
2015-Mar-23 14:33N 57°44' E 011°60'0 0.1
2015-Mar-23 13:33N 57°44' E 011°60'2 1.9
2015-Mar-23 12:32N 57°42' E 011°57'2 2.5
2015-Mar-23 11:33N 57°41' E 011°53'1 1.0
2015-Mar-23 10:33N 57°41' E 011°51'0 0.2
2015-Mar-23 09:33N 57°41' E 011°50'2 2.1
2015-Mar-23 08:33N 57°42' E 011°54'2 1.5
2015-Mar-23 07:31N 57°42' E 011°57'0 0.0
2015-Mar-23 06:31N 57°42' E 011°57'0 0.0
2015-Mar-23 05:28N 57°42' E 011°57'0 0.0
2015-Mar-23 04:31N 57°42' E 011°57'0 0.0
2015-Mar-23 03:31N 57°42' E 011°57'0 0.0
2015-Mar-23 02:31N 57°42' E 011°57'0 0.0
2015-Mar-23 01:31N 57°42' E 011°57'0 0.0
2015-Mar-23 00:28N 57°42' E 011°57'0 0.0
2015-Mar-22 23:31N 57°42' E 011°57'0 0.0
2015-Mar-22 22:31N 57°42' E 011°57'0 0.0
2015-Mar-22 21:31N 57°42' E 011°57'1 0.8
2015-Mar-22 20:31N 57°43' E 011°57'21229.1
2015-Mar-22 13:14N 59°18' E 018°00'  
2015-Mar-19 15:28N 59°20' E 018°11'4 4.0
2015-Mar-19 14:33N 59°18' E 018°05'4 3.6
2015-Mar-19 13:32N 59°19' E 017°58'0 0.0
2015-Mar-19 06:04N 59°19' E 017°58'0 0.3
2015-Mar-19 04:33N 59°18' E 017°59'0 0.0
2015-Mar-19 03:30N 59°18' E 017°59'0 0.0
2015-Mar-19 02:27N 59°18' E 017°59'0 0.0
2015-Mar-19 01:30N 59°18' E 017°59'0 0.0
2015-Mar-19 00:33N 59°18' E 017°59'0 0.0
2015-Mar-18 23:27N 59°18' E 017°59'0 0.0
2015-Mar-18 22:33N 59°18' E 017°59'0 0.0
2015-Mar-18 21:33N 59°18' E 017°59'0 0.0
2015-Mar-18 20:33N 59°18' E 017°59'0 0.0
2015-Mar-18 19:33N 59°18' E 017°59'0 0.0
2015-Mar-18 18:33N 59°18' E 017°59'0 0.0
2015-Mar-18 17:33N 59°18' E 017°59'0 0.0
2015-Mar-18 16:33N 59°18' E 017°59'0 0.0
2015-Mar-18 15:33N 59°18' E 017°59'0 0.0
2015-Mar-18 14:33N 59°18' E 017°59'0 0.0
2015-Mar-18 13:33N 59°18' E 017°59'0 0.0
2015-Mar-18 12:30N 59°18' E 017°59'0 0.0
2015-Mar-18 11:30N 59°18' E 017°58'0 0.0
2015-Mar-18 10:30N 59°18' E 017°59'0 0.0
2015-Mar-18 09:33N 59°18' E 017°59'0 0.0
2015-Mar-18 08:33N 59°18' E 017°59'0 0.0
2015-Mar-18 07:33N 59°18' E 017°59'0 0.0
2015-Mar-18 06:24N 59°18' E 017°59'0 0.0
2015-Mar-18 05:33N 59°18' E 017°59'0 0.0
2015-Mar-18 04:24N 59°18' E 017°59'0 0.0
2015-Mar-18 03:30N 59°18' E 017°59'0 0.0
2015-Mar-18 02:30N 59°18' E 017°59'0 0.0
2015-Mar-18 01:33N 59°18' E 017°59'0 0.0
2015-Mar-18 00:33N 59°18' E 017°59'0 0.0
2015-Mar-17 23:30N 59°18' E 017°59'0 0.0
2015-Mar-17 22:33N 59°18' E 017°59'0 0.0
2015-Mar-17 21:33N 59°18' E 017°59'0 0.0
2015-Mar-17 20:33N 59°18' E 017°59'0 0.0
2015-Mar-17 19:33N 59°18' E 017°59'0 0.0
2015-Mar-17 18:33N 59°18' E 017°59'0 0.0
2015-Mar-17 17:30N 59°18' E 017°59'0 0.0
2015-Mar-17 16:33N 59°18' E 017°59'  

Dump ship's entire track history